Time;durP1;ratioP1;P1;durP2;ratioP2;P2;SDS_P1;SDS_P2;PMS_P1;PMS_P2;Temp;Humidity;BMP_temperature;BMP_pressure;BME280_temperature;BME280_humidity;BME280_pressure;Samples;Min_cycle;Max_cycle;Signal;HPM_P1;HPM_P2
2021/07/15 00:02:18;;;;;;;1.13;0.50;;;13.30;98.00;;;;;;6192389;23;20049;-85
2021/07/15 00:04:44;;;;;;;2.25;0.50;;;13.30;98.00;;;;;;6219066;23;20397;-85
2021/07/15 00:07:10;;;;;;;0.50;0.50;;;13.30;98.00;;;;;;6218862;23;20001;-85
2021/07/15 00:09:37;;;;;;;0.50;0.50;;;13.30;98.00;;;;;;6192384;23;20013;-86
2021/07/15 00:12:07;;;;;;;0.50;0.50;;;13.30;98.00;;;;;;6219107;23;19996;-86
2021/07/15 00:14:33;;;;;;;0.40;0.40;;;13.20;98.00;;;;;;6217494;23;20071;-86
2021/07/15 00:17:00;;;;;;;1.30;0.40;;;13.30;98.00;;;;;;6219080;23;20007;-85
2021/07/15 00:19:28;;;;;;;0.40;0.40;;;13.20;98.00;;;;;;6192347;23;20393;-85
2021/07/15 00:21:57;;;;;;;0.88;0.47;;;13.20;98.00;;;;;;6219024;23;20270;-85
2021/07/15 00:24:24;;;;;;;0.40;0.40;;;13.20;98.00;;;;;;6219157;23;20004;-85
2021/07/15 00:26:51;;;;;;;1.40;0.40;;;13.20;98.00;;;;;;6192189;23;20008;-85
2021/07/15 00:29:17;;;;;;;0.40;0.40;;;13.20;98.00;;;;;;6219621;23;20071;-85
2021/07/15 00:31:43;;;;;;;0.57;0.40;;;13.20;98.00;;;;;;6191320;23;20005;-86
2021/07/15 00:34:09;;;;;;;2.55;0.50;;;13.20;98.00;;;;;;6191896;23;20004;-86
2021/07/15 00:36:36;;;;;;;0.57;0.50;;;13.10;98.00;;;;;;6218902;23;20026;-86
2021/07/15 00:39:07;;;;;;;0.50;0.50;;;13.20;97.80;;;;;;6192016;23;20031;-86
2021/07/15 00:41:34;;;;;;;0.40;0.40;;;13.10;97.90;;;;;;6192916;23;20359;-86
2021/07/15 00:44:00;;;;;;;0.40;0.40;;;13.10;97.90;;;;;;6218572;23;20005;-85
2021/07/15 00:46:26;;;;;;;0.55;0.40;;;13.10;97.70;;;;;;6191313;23;20004;-86
2021/07/15 00:48:52;;;;;;;0.63;0.50;;;13.10;97.90;;;;;;6218975;23;20000;-85
2021/07/15 00:51:21;;;;;;;0.43;0.43;;;13.10;98.00;;;;;;6192600;23;20258;-85
2021/07/15 00:53:47;;;;;;;0.50;0.50;;;13.10;97.70;;;;;;6218761;23;19996;-86
2021/07/15 00:56:13;;;;;;;2.70;0.50;;;13.00;97.80;;;;;;6218861;23;20008;-86
2021/07/15 00:58:39;;;;;;;1.20;0.50;;;13.10;97.70;;;;;;6218803;23;20001;-86
2021/07/15 01:01:08;;;;;;;0.40;0.40;;;13.10;97.90;;;;;;6190605;23;20012;-85
2021/07/15 01:03:34;;;;;;;0.40;0.40;;;13.00;97.60;;;;;;6218548;23;20008;-85
2021/07/15 01:06:00;;;;;;;2.08;0.60;;;13.00;97.70;;;;;;6219889;23;20008;-85
2021/07/15 01:08:26;;;;;;;1.27;0.50;;;13.00;97.60;;;;;;6220862;23;20072;-85
2021/07/15 01:10:56;;;;;;;0.40;0.40;;;13.00;97.20;;;;;;6220464;23;20043;-84
2021/07/15 01:13:44;;;;;;;0.50;0.40;;;13.00;97.40;;;;;;6220680;23;20001;-85
2021/07/15 01:16:28;;;;;;;0.47;0.47;;;13.00;97.40;;;;;;6219658;23;20004;-85
2021/07/15 01:19:28;;;;;;;0.43;0.43;;;13.00;97.40;;;;;;6194602;23;20074;-85
2021/07/15 01:22:08;;;;;;;0.63;0.45;;;12.90;97.40;;;;;;6220579;23;19997;-85
2021/07/15 01:24:59;;;;;;;0.40;0.40;;;12.90;97.30;;;;;;6220606;23;20032;-86
2021/07/15 01:27:46;;;;;;;2.10;0.40;;;12.90;97.20;;;;;;6220532;23;20009;-85
2021/07/15 01:30:14;;;;;;;0.85;0.50;;;12.90;97.30;;;;;;6218950;23;20075;-85
2021/07/15 01:33:18;;;;;;;0.68;0.47;;;12.90;97.30;;;;;;6194303;23;20294;-86
2021/07/15 01:35:54;;;;;;;0.40;0.40;;;12.90;97.30;;;;;;6158049;23;20044;-85
2021/07/15 01:38:24;;;;;;;0.40;0.40;;;12.90;97.30;;;;;;6158342;23;20072;-86
2021/07/15 01:41:04;;;;;;;0.40;0.40;;;12.90;97.00;;;;;;6167233;23;20005;-86
2021/07/15 01:43:42;;;;;;;0.40;0.40;;;12.90;97.20;;;;;;6220703;23;20000;-86
2021/07/15 01:46:11;;;;;;;0.40;0.40;;;12.90;97.30;;;;;;6192255;23;20015;-85
2021/07/15 01:48:38;;;;;;;0.50;0.43;;;12.90;97.40;;;;;;6220444;23;20078;-85
2021/07/15 01:51:05;;;;;;;0.40;0.40;;;12.80;97.50;;;;;;6220519;23;20000;-85
2021/07/15 01:53:31;;;;;;;0.75;0.40;;;12.90;97.40;;;;;;6220109;23;20001;-84
2021/07/15 01:55:59;;;;;;;0.50;0.50;;;12.90;97.40;;;;;;6194188;23;20031;-85
2021/07/15 01:58:28;;;;;;;0.70;0.40;;;12.90;97.70;;;;;;6220343;23;20005;-85
2021/07/15 02:00:55;;;;;;;0.40;0.40;;;12.90;97.80;;;;;;6219115;23;20009;-85
2021/07/15 02:03:21;;;;;;;0.80;0.50;;;12.90;97.60;;;;;;6220406;23;20001;-85
2021/07/15 02:05:48;;;;;;;0.40;0.40;;;12.90;97.90;;;;;;6193542;23;20386;-85
2021/07/15 02:08:15;;;;;;;0.40;0.40;;;12.80;97.90;;;;;;6194247;23;20024;-85
2021/07/15 02:10:42;;;;;;;1.00;0.43;;;12.80;98.00;;;;;;6220297;23;20040;-85
2021/07/15 02:13:10;;;;;;;1.08;0.88;;;12.80;98.00;;;;;;6220172;23;19997;-85
2021/07/15 02:15:37;;;;;;;0.40;0.40;;;12.80;98.00;;;;;;6218468;23;20000;-85
2021/07/15 02:18:08;;;;;;;0.95;0.50;;;12.80;97.80;;;;;;6220144;23;20074;-85
2021/07/15 02:20:37;;;;;;;0.40;0.40;;;12.80;97.90;;;;;;6193225;23;20019;-84
2021/07/15 02:23:05;;;;;;;0.43;0.40;;;12.80;97.80;;;;;;6220379;23;20008;-84
2021/07/15 02:25:32;;;;;;;0.52;0.43;;;12.80;97.70;;;;;;6219981;23;20001;-85
2021/07/15 02:27:58;;;;;;;0.82;0.40;;;12.80;97.60;;;;;;6194000;23;20008;-85
2021/07/15 02:30:24;;;;;;;0.40;0.40;;;12.80;98.00;;;;;;6218756;23;20005;-85
2021/07/15 02:33:01;;;;;;;0.50;0.50;;;12.80;97.90;;;;;;6193704;23;20501;-85
2021/07/15 02:35:32;;;;;;;1.58;0.50;;;12.80;98.00;;;;;;6220347;23;20001;-85
2021/07/15 02:38:00;;;;;;;0.52;0.40;;;12.90;98.00;;;;;;6194055;23;20090;-85
2021/07/15 02:40:27;;;;;;;0.40;0.40;;;12.90;98.00;;;;;;6193975;23;20004;-85
2021/07/15 02:42:53;;;;;;;0.45;0.40;;;12.90;98.00;;;;;;6220234;23;20024;-85
2021/07/15 02:45:20;;;;;;;0.73;0.50;;;12.90;98.00;;;;;;6218296;23;20008;-86
2021/07/15 02:47:47;;;;;;;0.45;0.45;;;12.90;98.00;;;;;;6193086;23;20096;-86
2021/07/15 02:50:18;;;;;;;1.42;0.40;;;12.90;98.00;;;;;;6193424;23;20001;-86
2021/07/15 02:52:44;;;;;;;1.20;0.40;;;12.90;98.00;;;;;;6219703;23;20076;-86
2021/07/15 02:55:12;;;;;;;0.75;0.50;;;12.90;98.00;;;;;;6220053;23;20076;-86
2021/07/15 02:58:04;;;;;;;0.75;0.40;;;12.90;98.00;;;;;;6219558;23;20004;-86
2021/07/15 03:00:51;;;;;;;0.40;0.40;;;12.90;98.00;;;;;;6218568;23;20074;-86
2021/07/15 03:03:30;;;;;;;0.30;0.30;;;12.80;98.00;;;;;;6219896;23;20028;-87
2021/07/15 03:06:13;;;;;;;0.40;0.40;;;12.80;98.00;;;;;;6219765;23;20001;-86
2021/07/15 03:08:48;;;;;;;0.38;0.38;;;12.90;98.00;;;;;;6219568;23;20008;-87
2021/07/15 03:11:18;;;;;;;2.60;0.45;;;12.90;98.00;;;;;;6219105;23;20020;-86
2021/07/15 03:13:45;;;;;;;1.00;0.40;;;12.90;98.00;;;;;;6193786;23;20001;-86
2021/07/15 03:16:14;;;;;;;0.50;0.50;;;13.00;98.00;;;;;;6191287;23;20066;-86
2021/07/15 03:18:41;;;;;;;0.90;0.40;;;13.00;98.00;;;;;;6219182;23;20079;-86
2021/07/15 03:21:07;;;;;;;0.52;0.40;;;13.00;98.00;;;;;;6193251;23;20270;-86
2021/07/15 03:23:37;;;;;;;0.40;0.40;;;13.00;98.00;;;;;;6219465;23;20000;-86
2021/07/15 03:26:05;;;;;;;0.40;0.40;;;13.00;98.00;;;;;;6219221;23;20267;-86
2021/07/15 03:28:35;;;;;;;0.30;0.30;;;13.00;98.00;;;;;;6219290;23;19997;-87
2021/07/15 03:31:05;;;;;;;0.52;0.40;;;13.10;98.00;;;;;;6217686;23;20001;-87
2021/07/15 03:33:33;;;;;;;0.40;0.40;;;13.10;98.00;;;;;;6218997;23;20017;-87
2021/07/15 03:36:01;;;;;;;0.32;0.32;;;13.10;98.00;;;;;;6219221;23;20004;-86
2021/07/15 03:38:27;;;;;;;0.68;0.40;;;13.10;98.00;;;;;;6218734;23;20005;-87
2021/07/15 03:40:54;;;;;;;0.40;0.40;;;13.10;98.00;;;;;;6219470;23;20371;-87
2021/07/15 03:43:23;;;;;;;0.52;0.50;;;13.10;98.00;;;;;;6192264;23;20008;-87
2021/07/15 03:45:50;;;;;;;1.10;0.40;;;13.10;98.00;;;;;;6217952;23;20055;-87
2021/07/15 03:48:17;;;;;;;3.28;0.40;;;13.10;98.00;;;;;;6219038;23;20024;-87
2021/07/15 03:50:46;;;;;;;2.38;0.50;;;13.00;98.00;;;;;;6218880;23;20076;-87
2021/07/15 03:53:16;;;;;;;0.45;0.45;;;13.00;98.00;;;;;;6192601;23;20008;-87
2021/07/15 03:55:47;;;;;;;1.10;0.40;;;13.10;98.00;;;;;;6219066;23;20004;-86
2021/07/15 03:58:16;;;;;;;0.35;0.35;;;13.10;98.00;;;;;;6193193;23;20375;-89
2021/07/15 04:00:46;;;;;;;0.40;0.40;;;13.10;98.00;;;;;;6217397;23;20016;-87
2021/07/15 04:03:20;;;;;;;0.40;0.40;;;13.10;98.00;;;;;;6192367;23;20092;-87
2021/07/15 04:05:48;;;;;;;0.40;0.40;;;13.10;98.00;;;;;;6218898;23;20000;-87
2021/07/15 04:08:18;;;;;;;0.47;0.40;;;13.10;98.00;;;;;;6192652;23;20019;-87
2021/07/15 04:10:50;;;;;;;0.85;0.43;;;13.10;98.00;;;;;;6219026;23;20084;-88
2021/07/15 04:13:19;;;;;;;0.40;0.40;;;13.20;98.00;;;;;;6193399;23;20262;-87
2021/07/15 04:15:54;;;;;;;3.10;1.50;;;13.20;98.00;;;;;;6190989;23;20027;-87
2021/07/15 04:18:27;;;;;;;0.75;0.40;;;13.20;98.00;;;;;;6218528;23;20059;-87
2021/07/15 04:20:56;;;;;;;0.40;0.40;;;13.30;98.00;;;;;;6218422;23;20051;-87
2021/07/15 04:23:23;;;;;;;1.35;0.38;;;13.30;98.00;;;;;;6218425;23;20051;-87
2021/07/15 04:25:53;;;;;;;0.40;0.40;;;13.30;98.00;;;;;;6218985;23;20005;-87
2021/07/15 04:28:19;;;;;;;0.38;0.38;;;13.40;98.00;;;;;;6218551;23;20370;-88
2021/07/15 04:30:48;;;;;;;0.30;0.30;;;13.50;98.00;;;;;;6217029;23;19997;-87
2021/07/15 04:33:14;;;;;;;0.30;0.30;;;13.50;98.00;;;;;;6218776;23;20334;-87
2021/07/15 04:35:43;;;;;;;0.68;0.35;;;13.60;98.00;;;;;;6218384;23;20407;-87
2021/07/15 04:38:10;;;;;;;0.88;0.60;;;13.60;98.00;;;;;;6218919;23;20003;-87
2021/07/15 04:40:39;;;;;;;0.40;0.40;;;13.60;98.00;;;;;;6219018;23;20028;-87
2021/07/15 04:43:08;;;;;;;0.40;0.40;;;13.70;98.00;;;;;;6219056;23;20000;-87
2021/07/15 04:45:44;;;;;;;0.50;0.40;;;13.80;98.00;;;;;;6216428;23;20306;-87
2021/07/15 04:48:11;;;;;;;0.60;0.50;;;13.90;98.00;;;;;;6218287;23;20351;-87
2021/07/15 04:50:42;;;;;;;0.50;0.40;;;13.90;98.00;;;;;;6191381;23;20270;-87
2021/07/15 04:53:36;;;;;;;0.40;0.40;;;14.10;98.00;;;;;;6189975;23;20008;-87
2021/07/15 04:56:02;;;;;;;0.40;0.40;;;14.10;98.00;;;;;;6191456;23;20013;-87
2021/07/15 04:58:33;;;;;;;0.40;0.40;;;14.20;98.00;;;;;;6191046;23;20248;-87
2021/07/15 05:01:00;;;;;;;0.40;0.40;;;14.30;98.00;;;;;;6216146;23;20262;-88
2021/07/15 05:03:33;;;;;;;1.42;0.35;;;14.30;98.00;;;;;;6191246;23;20015;-87
2021/07/15 05:06:01;;;;;;;0.50;0.30;;;14.40;98.00;;;;;;6192793;23;20092;-87
2021/07/15 05:08:31;;;;;;;0.40;0.30;;;14.40;98.00;;;;;;6217453;23;20005;-87
2021/07/15 05:11:03;;;;;;;1.38;0.70;;;14.30;98.00;;;;;;6217000;23;20017;-87
2021/07/15 05:13:37;;;;;;;2.70;0.70;;;14.30;98.00;;;;;;6192325;23;20004;-88
2021/07/15 05:19:06;;;;;;;0.40;0.40;;;14.30;98.00;;;;;;6218531;23;20005;-88
2021/07/15 05:25:40;;;;;;;;;;;;;;;;;;;;;
2021/07/15 05:32:32;;;;;;;2.15;0.40;;;14.60;98.00;;;;;;6160155;23;20367;-88
2021/07/15 05:35:40;;;;;;;;;;;;;;;;;;;;;
2021/07/15 05:42:00;;;;;;;0.82;0.40;;;14.70;98.00;;;;;;6069240;23;20381;-88
2021/07/15 05:45:30;;;;;;;0.30;0.30;;;14.70;98.00;;;;;;6025251;23;20490;-89
2021/07/15 05:48:27;;;;;;;;;;;;;;;;;;;;;
2021/07/15 06:02:12;;;;;;;;;;;;;;;;;;;;;
2021/07/15 06:23:49;;;;;;;;;;;;;;;;;;;;;
2021/07/15 06:27:26;;;;;;;1.30;0.60;;;16.60;96.60;;;;;;5714079;24;20483;-89
2021/07/15 06:33:31;;;;;;;0.30;0.30;;;15.90;96.70;;;;;;5867431;24;20062;-89
2021/07/15 06:36:14;;;;;;;0.40;0.40;;;15.80;96.90;;;;;;5874865;24;20006;-89
2021/07/15 06:39:32;;;;;;;1.67;0.40;;;15.60;97.10;;;;;;5874402;24;20010;-89
2021/07/15 06:42:13;;;;;;;0.93;0.40;;;15.50;97.30;;;;;;5984671;23;20035;-89
2021/07/15 06:44:49;;;;;;;0.95;0.50;;;15.60;97.50;;;;;;6010209;23;20007;-89
2021/07/15 06:47:21;;;;;;;0.30;0.30;;;15.80;97.40;;;;;;6152350;23;20016;-88
2021/07/15 06:49:52;;;;;;;1.92;0.43;;;15.80;97.20;;;;;;6163356;23;20001;-88
2021/07/15 06:52:58;;;;;;;1.23;0.40;;;15.90;97.50;;;;;;6164244;23;20011;-89
2021/07/15 06:56:09;;;;;;;0.30;0.30;;;15.80;97.50;;;;;;6163561;23;20028;-89
2021/07/15 06:58:44;;;;;;;2.17;0.60;;;15.60;97.70;;;;;;6148374;23;20371;-89
2021/07/15 07:01:15;;;;;;;1.58;0.60;;;15.50;98.00;;;;;;6188757;23;20005;-89
2021/07/15 07:03:44;;;;;;;1.85;1.00;;;15.60;98.00;;;;;;6163403;23;20005;-89
2021/07/15 07:06:10;;;;;;;0.60;0.50;;;15.60;98.00;;;;;;6163692;23;20001;-89
2021/07/15 07:08:39;;;;;;;2.42;0.70;;;15.60;98.00;;;;;;6190164;23;20001;-89
2021/07/15 07:11:11;;;;;;;2.65;0.70;;;15.70;98.00;;;;;;6176684;23;20310;-89
2021/07/15 07:13:37;;;;;;;1.67;0.80;;;15.70;98.00;;;;;;6193438;23;20051;-89
2021/07/15 07:16:19;;;;;;;1.15;0.70;;;15.60;98.00;;;;;;6218417;23;20009;-89
2021/07/15 07:18:45;;;;;;;1.15;0.70;;;15.70;98.00;;;;;;6220230;23;20354;-88
2021/07/15 07:21:11;;;;;;;3.80;0.70;;;15.80;98.00;;;;;;6193981;23;20008;-88
2021/07/15 07:23:40;;;;;;;1.70;0.73;;;15.70;97.90;;;;;;6192699;23;20127;-88
2021/07/15 07:26:07;;;;;;;0.90;0.70;;;15.70;98.00;;;;;;6193390;23;20011;-89
2021/07/15 07:28:33;;;;;;;2.58;0.93;;;15.70;98.00;;;;;;6193652;23;20240;-89
2021/07/15 07:31:05;;;;;;;0.98;0.65;;;15.70;98.00;;;;;;6218319;23;19996;-89
2021/07/15 07:33:56;;;;;;;1.48;0.80;;;15.80;98.00;;;;;;6219247;23;20004;-89
2021/07/15 07:36:43;;;;;;;1.52;0.70;;;15.90;98.00;;;;;;6193050;23;20032;-89
2021/07/15 07:39:28;;;;;;;2.97;1.05;;;16.20;98.00;;;;;;6215384;23;20039;-89
2021/07/15 07:42:04;;;;;;;1.08;0.60;;;16.50;97.40;;;;;;6193388;23;20450;-89
2021/07/15 07:45:00;;;;;;;;;;;;;;;;;;;;;
2021/07/15 07:54:31;;;;;;;0.98;0.70;;;16.10;96.50;;;;;;6098188;23;20099;-89
2021/07/15 07:57:03;;;;;;;0.98;0.50;;;15.90;97.50;;;;;;6098658;23;20057;-89
2021/07/15 07:59:53;;;;;;;3.05;0.75;;;16.20;97.60;;;;;;6211862;23;20009;-89
2021/07/15 08:09:44;;;;;;;0.93;0.50;;;17.70;94.90;;;;;;6127271;23;20551;-88
2021/07/15 08:26:56;;;;;;;0.73;0.40;;;18.10;94.30;;;;;;6128020;23;20081;-89
2021/07/15 08:30:16;;;;;;;0.68;0.55;;;18.40;93.20;;;;;;6116432;23;20002;-89
2021/07/15 08:33:09;;;;;;;0.60;0.52;;;18.70;92.70;;;;;;6072629;23;20011;-89
2021/07/15 08:35:58;;;;;;;1.23;0.57;;;18.50;92.20;;;;;;6095783;23;20010;-89
2021/07/15 08:42:30;;;;;;;;;;;;;;;;;;;;;
2021/07/15 08:45:36;;;;;;;2.35;0.60;;;17.20;95.50;;;;;;6191195;23;20087;-89
2021/07/15 08:48:33;;;;;;;;;;;17.00;96.10;;;;;;6157156;23;20373;-89
2021/07/15 08:51:07;;;;;;;1.55;0.60;;;17.00;96.60;;;;;;6192160;23;19946;-88
2021/07/15 08:53:35;;;;;;;1.30;0.60;;;16.60;96.60;;;;;;6192495;23;20001;-90
2021/07/15 08:58:45;;;;;;;;;;;16.20;97.60;;;;;;6219610;23;20020;-91
2021/07/15 09:01:13;;;;;;;3.35;0.60;;;16.10;97.60;;;;;;6217287;23;19927;-92
2021/07/15 09:03:39;;;;;;;0.60;0.50;;;16.10;97.80;;;;;;6219175;23;20079;-91
2021/07/15 09:06:05;;;;;;;0.63;0.50;;;16.10;97.90;;;;;;6192622;23;20398;-91
2021/07/15 09:08:32;;;;;;;1.15;0.60;;;16.10;98.00;;;;;;6192459;23;20367;-90
2021/07/15 09:11:00;;;;;;;1.30;0.60;;;16.00;98.00;;;;;;6218507;23;20009;-89
2021/07/15 09:13:25;;;;;;;0.90;0.60;;;15.90;98.00;;;;;;6192695;23;20005;-90
2021/07/15 09:15:51;;;;;;;3.30;0.80;;;15.80;98.00;;;;;;6217493;23;20067;-89
2021/07/15 09:18:17;;;;;;;0.95;0.50;;;15.80;98.00;;;;;;6219036;23;20267;-84
2021/07/15 09:20:43;;;;;;;2.33;0.70;;;15.90;98.00;;;;;;6219088;23;19997;-89
2021/07/15 09:23:12;;;;;;;1.83;0.50;;;16.00;98.00;;;;;;6193106;23;20027;-89
2021/07/15 09:25:37;;;;;;;0.65;0.50;;;16.30;98.00;;;;;;6215999;23;20012;-89
2021/07/15 09:28:04;;;;;;;1.33;0.47;;;16.50;98.00;;;;;;6220125;23;20371;-88
2021/07/15 09:30:31;;;;;;;2.47;1.00;;;16.60;97.70;;;;;;6193256;23;20009;-89
2021/07/15 09:33:00;;;;;;;4.03;1.13;;;16.90;97.70;;;;;;6220784;23;19996;-89
2021/07/15 09:35:33;;;;;;;1.80;0.60;;;17.30;97.80;;;;;;6194634;23;20028;-89
2021/07/15 09:38:20;;;;;;;0.50;0.50;;;17.80;96.80;;;;;;6220724;23;20079;-90
2021/07/15 09:41:00;;;;;;;0.65;0.50;;;18.30;96.30;;;;;;6219649;23;20008;-90
2021/07/15 09:43:26;;;;;;;1.67;0.52;;;18.80;95.50;;;;;;6220814;23;20001;-89
2021/07/15 09:45:58;;;;;;;8.13;0.73;;;19.20;95.00;;;;;;6192495;23;20009;-90
2021/07/15 09:48:26;;;;;;;1.77;0.88;;;19.80;92.60;;;;;;6194071;23;20013;-90
2021/07/15 09:50:54;;;;;;;0.73;0.50;;;20.30;91.00;;;;;;6193939;23;20007;-90
2021/07/15 09:53:24;;;;;;;0.57;0.50;;;20.70;87.90;;;;;;6193783;23;20275;-90
2021/07/15 09:56:05;;;;;;;1.95;0.50;;;21.10;87.40;;;;;;6193940;23;20004;-90
2021/07/15 09:58:57;;;;;;;1.33;0.63;;;21.20;89.20;;;;;;6220453;23;20035;-90
2021/07/15 10:01:24;;;;;;;8.93;3.63;;;20.90;88.20;;;;;;6218380;23;19997;-91
2021/07/15 10:03:57;;;;;;;2.05;0.80;;;21.00;89.20;;;;;;6220403;23;20400;-91
2021/07/15 10:06:41;;;;;;;1.83;0.67;;;20.00;89.30;;;;;;6193490;23;20004;-90
2021/07/15 10:09:08;;;;;;;10.18;1.00;;;20.00;90.70;;;;;;6220550;23;20007;-90
2021/07/15 10:11:36;;;;;;;0.60;0.50;;;19.60;91.10;;;;;;6220406;23;20020;-91
2021/07/15 10:14:07;;;;;;;0.52;0.47;;;19.40;92.60;;;;;;6220105;23;20007;-90
2021/07/15 10:16:38;;;;;;;0.73;0.50;;;19.30;93.10;;;;;;6218869;23;20005;-91
2021/07/15 10:19:06;;;;;;;0.82;0.60;;;19.10;93.00;;;;;;6220214;23;20008;-90
2021/07/15 10:21:34;;;;;;;0.88;0.50;;;19.70;92.30;;;;;;6220692;23;19997;-91
2021/07/15 10:24:16;;;;;;;0.60;0.50;;;20.00;90.50;;;;;;6220410;23;20028;-90
2021/07/15 10:26:46;;;;;;;0.98;0.60;;;20.80;89.20;;;;;;6194245;23;20007;-89
2021/07/15 10:29:16;;;;;;;0.93;0.60;;;21.30;87.10;;;;;;6220017;23;20001;-90
2021/07/15 10:31:49;;;;;;;0.90;0.50;;;20.90;87.90;;;;;;6218671;23;19996;-90
2021/07/15 10:34:16;;;;;;;1.13;0.60;;;21.30;86.00;;;;;;6193584;23;20124;-91
2021/07/15 10:36:46;;;;;;;0.93;0.60;;;21.40;84.50;;;;;;6220049;23;20363;-90
2021/07/15 10:39:29;;;;;;;0.75;0.50;;;21.40;86.00;;;;;;6192673;23;20421;-90
2021/07/15 10:42:08;;;;;;;2.47;0.50;;;20.90;88.40;;;;;;6192874;23;20006;-90
2021/07/15 10:44:49;;;;;;;1.13;0.50;;;20.50;89.80;;;;;;6191931;23;20019;-90
2021/07/15 10:47:16;;;;;;;0.98;0.60;;;19.60;91.50;;;;;;6193431;23;20091;-91
2021/07/15 10:49:43;;;;;;;1.50;0.60;;;18.90;93.30;;;;;;6220228;23;20047;-89
2021/07/15 10:52:09;;;;;;;1.05;0.60;;;18.30;94.60;;;;;;6220177;23;19997;-88
2021/07/15 10:54:37;;;;;;;1.67;0.73;;;17.90;95.80;;;;;;6219992;23;20008;-90
2021/07/15 10:57:04;;;;;;;2.30;0.82;;;17.60;96.90;;;;;;6193801;23;20452;-89
2021/07/15 10:59:31;;;;;;;1.27;0.75;;;17.30;97.00;;;;;;6219081;23;20001;-87
2021/07/15 11:02:01;;;;;;;1.92;0.98;;;17.20;97.30;;;;;;6219966;23;20028;-88
2021/07/15 11:04:30;;;;;;;2.35;0.90;;;17.10;96.90;;;;;;6193369;23;20096;-87
2021/07/15 11:07:02;;;;;;;1.65;0.90;;;17.00;97.40;;;;;;6220108;23;20011;-87
2021/07/15 11:09:29;;;;;;;3.28;1.40;;;17.00;97.40;;;;;;6219494;23;20262;-87
2021/07/15 11:11:57;;;;;;;1.75;0.90;;;17.00;97.40;;;;;;6219789;23;20015;-89
2021/07/15 11:14:41;;;;;;;0.70;0.60;;;17.20;98.00;;;;;;6219788;23;20007;-88
2021/07/15 11:17:22;;;;;;;0.80;0.60;;;17.30;97.30;;;;;;6220056;23;20376;-86
2021/07/15 11:20:02;;;;;;;0.82;0.60;;;17.40;96.40;;;;;;6219703;23;20001;-88
2021/07/15 11:22:50;;;;;;;0.70;0.60;;;17.70;95.70;;;;;;6219990;23;20000;-88
2021/07/15 11:25:24;;;;;;;0.65;0.57;;;18.10;95.60;;;;;;6219860;23;20058;-87
2021/07/15 11:27:52;;;;;;;1.00;0.60;;;18.60;95.30;;;;;;6193447;23;20013;-88
2021/07/15 11:30:35;;;;;;;1.13;0.70;;;19.30;95.70;;;;;;6218182;23;20000;-89
2021/07/15 11:33:18;;;;;;;1.48;0.80;;;19.80;93.80;;;;;;6220356;23;20012;-89
2021/07/15 11:36:07;;;;;;;1.27;0.90;;;20.10;91.20;;;;;;6193393;23;20012;-88
2021/07/15 11:38:38;;;;;;;1.48;0.60;;;20.50;92.10;;;;;;6193712;23;20051;-89
2021/07/15 11:41:14;;;;;;;3.08;0.60;;;21.40;90.00;;;;;;6219610;23;20008;-90
2021/07/15 11:43:50;;;;;;;1.88;0.80;;;22.50;88.10;;;;;;6220028;23;20000;-89
2021/07/15 11:46:28;;;;;;;1.35;0.80;;;23.10;87.40;;;;;;6217932;23;20005;-90
2021/07/15 11:49:02;;;;;;;0.70;0.50;;;23.60;85.50;;;;;;6219613;23;20016;-90
2021/07/15 11:51:31;;;;;;;;;;;23.70;82.00;;;;;;6219693;23;20289;-89
2021/07/15 11:54:22;;;;;;;1.45;0.75;;;23.50;81.10;;;;;;6219593;23;19901;-89
2021/07/15 11:56:53;;;;;;;2.92;0.68;;;23.20;84.20;;;;;;6219378;23;20005;-90
2021/07/15 12:00:04;;;;;;;1.10;0.60;;;22.90;85.10;;;;;;6219856;23;20013;-91
2021/07/15 12:03:15;;;;;;;0.90;0.50;;;23.10;83.70;;;;;;6219227;23;20083;-90
2021/07/15 12:10:35;;;;;;;;;;;;;;;;;;;;;
2021/07/15 12:13:33;;;;;;;0.98;0.60;;;25.50;75.40;;;;;;6069686;23;20098;-90
2021/07/15 12:15:59;;;;;;;0.90;0.60;;;24.20;78.30;;;;;;6074558;23;20018;-91
2021/07/15 12:18:40;;;;;;;3.40;0.85;;;23.80;80.40;;;;;;6193137;23;20001;-91
2021/07/15 12:21:36;;;;;;;1.58;0.57;;;23.00;85.00;;;;;;6217726;23;20378;-90
2021/07/15 12:24:41;;;;;;;0.90;0.50;;;22.70;84.60;;;;;;6191222;23;20035;-91
2021/07/15 12:27:20;;;;;;;1.15;0.70;;;22.20;85.30;;;;;;6187033;23;20009;-91
2021/07/15 12:30:00;;;;;;;1.00;0.60;;;21.70;86.10;;;;;;6190180;23;20114;-91
2021/07/15 12:33:06;;;;;;;1.33;0.60;;;20.80;87.90;;;;;;6192106;23;20012;-92
2021/07/15 12:35:35;;;;;;;1.25;0.65;;;20.30;89.60;;;;;;6190144;23;20388;-91
2021/07/15 12:38:28;;;;;;;1.33;0.70;;;20.20;89.50;;;;;;6187987;23;20043;-91
2021/07/15 12:41:25;;;;;;;0.80;0.60;;;19.80;90.50;;;;;;6188724;23;20012;-91
2021/07/15 12:43:59;;;;;;;1.85;0.77;;;19.60;90.70;;;;;;6188954;23;20529;-90
2021/07/15 12:46:40;;;;;;;1.42;0.70;;;19.20;91.90;;;;;;6187287;23;20389;-90
2021/07/15 12:49:14;;;;;;;1.33;0.75;;;18.80;93.20;;;;;;6188121;23;20078;-90
2021/07/15 12:51:42;;;;;;;3.03;0.90;;;18.80;93.60;;;;;;6188423;23;20004;-90
2021/07/15 12:54:31;;;;;;;11.30;0.95;;;19.10;93.10;;;;;;6188835;23;20392;-90
2021/07/15 12:57:11;;;;;;;1.45;0.95;;;19.70;92.50;;;;;;6188584;23;20015;-91
2021/07/15 12:59:39;;;;;;;1.10;0.70;;;20.50;90.60;;;;;;6213184;23;20059;-90
2021/07/15 13:02:45;;;;;;;2.40;0.85;;;20.90;90.10;;;;;;6214744;23;20024;-90
2021/07/15 13:05:27;;;;;;;1.17;0.80;;;21.10;88.60;;;;;;6188605;23;20401;-89
2021/07/15 13:08:02;;;;;;;1.63;0.70;;;20.50;89.50;;;;;;6188583;23;20020;-89
2021/07/15 13:17:02;;;;;;;2.63;1.00;;;19.10;93.20;;;;;;6213764;23;20025;-91
2021/07/15 13:20:09;;;;;;;1.67;0.70;;;19.20;92.60;;;;;;6202180;23;20005;-90
2021/07/15 13:25:59;;;;;;;1.98;1.00;;;19.70;90.70;;;;;;6093589;23;20006;-89
2021/07/15 13:28:59;;;;;;;;;;;;;;;;;;;;;
2021/07/15 13:31:38;;;;;;;3.78;1.23;;;19.50;91.20;;;;;;6213047;23;20087;-90
2021/07/15 13:34:37;;;;;;;3.95;1.60;;;19.20;91.90;;;;;;6215453;23;20004;-89
2021/07/15 13:37:03;;;;;;;2.95;1.20;;;19.10;92.50;;;;;;6189006;23;20091;-90
2021/07/15 13:39:39;;;;;;;1.92;0.98;;;19.20;92.90;;;;;;6187057;23;20651;-89
2021/07/15 13:42:06;;;;;;;2.70;1.25;;;19.20;93.40;;;;;;6188658;23;20091;-91
2021/07/15 13:44:33;;;;;;;1.80;1.00;;;18.80;95.10;;;;;;6217082;23;20039;-90
2021/07/15 13:47:07;;;;;;;2.28;0.90;;;18.40;96.10;;;;;;6218766;23;19997;-91
2021/07/15 13:49:34;;;;;;;2.25;1.00;;;18.20;96.20;;;;;;6218508;23;20001;-90
2021/07/15 13:52:10;;;;;;;2.17;1.05;;;17.90;96.30;;;;;;6218971;23;20001;-88
2021/07/15 13:54:37;;;;;;;2.15;1.02;;;17.80;97.30;;;;;;6218430;23;20000;-88
2021/07/15 13:57:10;;;;;;;2.35;1.10;;;17.60;97.60;;;;;;6218471;23;20066;-88
2021/07/15 13:59:38;;;;;;;2.15;1.20;;;17.40;97.00;;;;;;6217009;23;20008;-88
2021/07/15 14:02:12;;;;;;;3.10;1.30;;;17.30;97.80;;;;;;6218689;23;20004;-89
2021/07/15 14:04:46;;;;;;;2.42;1.10;;;17.40;97.40;;;;;;6191675;23;20009;-87
2021/07/15 14:07:15;;;;;;;2.55;1.27;;;17.60;97.80;;;;;;6218134;23;20084;-88
2021/07/15 14:09:42;;;;;;;2.15;1.00;;;17.60;97.40;;;;;;6218393;23;20366;-89
2021/07/15 14:12:10;;;;;;;4.85;1.50;;;17.60;97.00;;;;;;6218201;23;19997;-88
2021/07/15 14:14:47;;;;;;;2.70;1.25;;;17.40;96.80;;;;;;6192708;23;20063;-87
2021/07/15 14:17:23;;;;;;;3.55;1.20;;;17.40;97.70;;;;;;6194188;23;20455;-89
2021/07/15 14:20:00;;;;;;;3.30;1.35;;;17.50;97.60;;;;;;6220409;23;20038;-90
2021/07/15 14:22:26;;;;;;;2.28;1.23;;;17.60;97.70;;;;;;6220776;23;20004;-87
2021/07/15 14:24:52;;;;;;;2.33;1.10;;;17.70;97.40;;;;;;6220590;23;20055;-89
2021/07/15 14:27:22;;;;;;;2.38;1.20;;;17.90;97.40;;;;;;6219766;23;20005;-88
2021/07/15 14:29:49;;;;;;;2.70;1.17;;;18.10;97.30;;;;;;6218274;23;20011;-89
2021/07/15 14:32:17;;;;;;;5.15;1.05;;;18.60;97.20;;;;;;6193819;23;20376;-89
2021/07/15 14:34:44;;;;;;;3.65;1.45;;;19.20;96.60;;;;;;6193739;23;20005;-88
2021/07/15 14:37:12;;;;;;;2.83;1.20;;;20.10;96.10;;;;;;6194442;23;20008;-88
2021/07/15 14:39:38;;;;;;;2.88;1.52;;;20.50;93.90;;;;;;6193808;23;20004;-90
2021/07/15 14:42:05;;;;;;;4.72;1.05;;;21.80;94.60;;;;;;6193825;23;20035;-91
2021/07/15 14:44:32;;;;;;;2.10;1.02;;;22.50;89.80;;;;;;6192178;23;20005;-89
2021/07/15 14:46:58;;;;;;;1.75;0.98;;;22.80;86.80;;;;;;6219769;23;20001;-91
2021/07/15 14:49:27;;;;;;;1.85;0.90;;;22.80;87.20;;;;;;6219371;23;20004;-92
2021/07/15 14:51:54;;;;;;;1.60;0.90;;;23.60;85.80;;;;;;6220481;23;20008;-91
2021/07/15 14:54:20;;;;;;;1.42;0.70;;;24.60;82.70;;;;;;6219228;23;20064;-91
2021/07/15 14:56:45;;;;;;;1.10;0.80;;;24.30;81.70;;;;;;6192598;23;20039;-90
2021/07/15 14:59:23;;;;;;;;;;;;;;;;;;;;;
2021/07/15 15:02:36;;;;;;;;;;;;;;;;;;;;;
2021/07/15 15:05:18;;;;;;;0.73;0.60;;;26.40;75.30;;;;;;6218856;23;20076;-92
2021/07/15 15:08:19;;;;;;;1.33;0.85;;;28.20;72.10;;;;;;6218467;23;20012;-91
2021/07/15 15:10:50;;;;;;;1.42;0.85;;;28.00;66.70;;;;;;6185972;23;20051;-91
2021/07/15 15:13:26;;;;;;;2.08;0.85;;;27.00;69.90;;;;;;6193038;23;20020;-90
2021/07/15 15:16:02;;;;;;;1.67;0.85;;;26.60;71.90;;;;;;6217957;23;20005;-91
2021/07/15 15:18:28;;;;;;;2.30;1.13;;;26.40;73.40;;;;;;6193334;23;20011;-90